• Join FlightAware (Why Join?)
  • Login
  • US Flag 
08:34PM EDT


 

Airport Tracker/Info


-or-


 

Live Flight TrackerFlight Track Log ✈ LXJ437 ✈ 16-Jun-2013 ✈ KCCR - KSBA

Flight Track Log - Related Links

Times and Time Zones

All times are in EDT time to prevent confusion due to time zone crossing. See the LXJ437 flight status page for this flight to view local times or setup timezone preferences in your user account.

Time Position Orientation Groundspeed Altitude Reporting Facility
EDT Latitude Longitude Course Direction KTS MPH feet Rate Location/Type
09:22PM 37.9550 -122.0483 35° Northeast 171 197 2,400  Level Oakland Center
09:23PM 37.9900 -122.0172 35° Northeast 217 250 4,800 3,000 Climbing Oakland Center
09:24PM 38.0372 -122.0100 North 213 245 8,600 3,720 Climbing Oakland Center
09:25PM 38.0333 -121.9311 94° East 228 262 12,500 3,900 Climbing Oakland Center
09:26PM 38.0025 -121.8461 115° Southeast 260 299 16,600 3,120 Climbing Oakland Center
09:27PM 37.9644 -121.7475 116° Southeast 303 349 19,000 1,140 Climbing Oakland Center
09:28PM 37.9164 -121.6233 116° Southeast 388 447 19,000 720 Level Oakland Center
09:29PM 37.8161 -121.5839 163° South 394 453 20,500 1,680 Climbing Oakland Center
09:30PM 37.7069 -121.5228 156° South 429 494 22,500 2,100 Climbing Oakland Center
09:31PM 37.5672 -121.4467 157° South 451 519 24,900 1,200 Climbing Oakland Center
09:32PM 37.4469 -121.3814 157° South 467 537 25,000  Climbing Oakland Center
09:33PM 37.3319 -121.3211 157° South 478 550 25,000  Level Oakland Center
09:34PM 37.2103 -121.2561 157° South 476 548 25,000  Level Oakland Center
09:35PM 37.0797 -121.1878 157° South 475 547 25,000  Level Oakland Center
09:36PM 36.9669 -121.1272 157° South 476 548 25,000  Level Oakland Center
09:37PM 36.8208 -121.0511 157° South 474 545 25,000  Level Oakland Center
09:38PM 36.7075 -120.9939 158° South 478 550 25,000  Level Oakland Center
09:39PM 36.5858 -120.9306 157° South 475 547 25,000  Level Oakland Center
09:40PM 36.4628 -120.8672 158° South 477 549 25,000  Level Oakland Center
09:41PM 36.3408 -120.8036 157° South 476 548 25,000 -420 Level Oakland Center
09:42PM 36.1939 -120.7286 158° South 476 548 24,200 -960 Descending Oakland Center
09:43PM 36.0767 -120.6686 158° South 460 529 23,100 -600 Descending Oakland Center
09:44PM 35.9575 -120.6083 158° South 461 531 23,000 -60 Descending Oakland Center
09:45PM 35.8394 -120.5472 157° South 461 531 23,000  Level Oakland Center
09:47PM 35.7214 -120.4878 158° South 459 528 23,000  Level Oakland Center
09:48PM 35.6053 -120.4297 158° South 454 522 23,000  Level Oakland Center
09:48PM 35.5547 -120.4044 158° South 455 524 23,000  Level Los Angeles Center
09:49PM 35.4328 -120.3558 162° South 458 527 23,000  Level Los Angeles Center
09:50PM 35.3089 -120.3183 166° South 460 529 23,000 -540 Level Los Angeles Center
09:51PM 35.1869 -120.2836 167° South 453 521 22,000 -1,980 Descending Los Angeles Center
09:52PM 35.0789 -120.2522 167° South 410 472 19,000 -3,240 Descending Los Angeles Center
09:53PM 35.0036 -120.2300 166° South 382 440 16,900 -3,540 Descending Los Angeles Center
09:53PM 34.9578 -120.2172 167° South 377 434 15,400 -2,940 Descending Los Angeles Center
09:53PM 34.9256 -120.2078 166° South 365 420 14,500 -2,760 Descending Los Angeles Center
09:54PM 34.8658 -120.1819 160° South 355 409 12,600 -2,820 Descending Los Angeles Center
09:54PM 34.8325 -120.1669 160° South 336 387 11,700 -2,460 Descending Los Angeles Center
09:55PM 34.7806 -120.1458 162° South 333 383 10,100 -2,100 Descending Los Angeles Center
09:56PM 34.7450 -120.1322 163° South 319 367 9,400 -1,140 Descending Los Angeles Center
09:56PM 34.6972 -120.1114 160° South 320 368 9,000 -360 Descending Los Angeles Center
09:57PM 34.6131 -120.0792 163° South 310 357 8,900 -180 Descending Los Angeles Center
09:58PM 34.5319 -120.0436 160° South 311 358 8,700 -840 Descending Los Angeles Center
09:59PM 34.4742 -119.9756 136° Southeast 296 341 7,200 -1,680 Descending Los Angeles Center
10:00PM 34.4122 -119.9336 151° Southeast 269 310 5,300 -2,160 Descending Los Angeles Center
10:01PM 34.3592 -119.8711 136° Southeast 244 281 2,800 -1,680 Descending Los Angeles Center
10:02PM 34.3717 -119.8097 76° East 236 272 1,900 -900 Descending Los Angeles Center
10:03PM 34.4114 -119.7908 21° North 190 219 1,000 -600 Descending Los Angeles Center
10:04PM 34.4433 -119.8150 328° Northwest 174 200 700 -300 Descending Los Angeles Center
10:06PM 34.4167 -119.8333 331° Northwest  Level FlightAware Approximate
10:13PM 34.4262 -119.8415 331° Northwest  Level Estimated